createdAt,value
2018-12-19T00:01:52.255Z,99495.41
2018-12-19T00:04:25.000Z,99492.88
2018-12-19T00:06:57.426Z,99493.93
2018-12-19T00:09:27.775Z,99494.66
2018-12-19T00:11:58.150Z,99496.31
2018-12-19T00:14:29.527Z,99498.13
2018-12-19T00:16:59.853Z,99505.89
2018-12-19T00:19:29.915Z,99501.75
2018-12-19T00:22:00.055Z,99506.75
2018-12-19T00:24:30.478Z,99515.63
2018-12-19T00:27:03.336Z,99511.43
2018-12-19T00:29:36.048Z,99523.43
2018-12-19T00:32:08.479Z,99516.09
2018-12-19T00:34:40.809Z,99514.63
2018-12-19T00:37:11.056Z,99513.13
2018-12-19T00:39:41.600Z,99504.20
2018-12-19T00:42:12.036Z,99505.48
2018-12-19T00:44:42.215Z,99489.98
2018-12-19T00:47:12.744Z,99493.43
2018-12-19T00:49:43.172Z,99498.47
2018-12-19T00:52:13.557Z,99494.27
2018-12-19T00:54:44.127Z,99499.95
2018-12-19T00:57:14.689Z,99497.34
2018-12-19T00:59:45.313Z,99501.25
2018-12-19T01:02:15.686Z,99512.13
2018-12-19T01:04:48.181Z,99503.73
2018-12-19T01:07:22.886Z,99502.70
2018-12-19T01:09:53.268Z,99506.57
2018-12-19T01:12:24.512Z,99505.91
2018-12-19T01:14:55.484Z,99505.39
2018-12-19T01:17:25.751Z,99505.91
2018-12-19T01:19:56.457Z,99497.11
2018-12-19T01:22:26.682Z,99496.41
2018-12-19T01:24:56.746Z,99503.41
2018-12-19T01:27:27.226Z,99498.98
2018-12-19T01:29:57.560Z,99500.56
2018-12-19T01:32:28.532Z,99499.94
2018-12-19T01:34:59.467Z,99501.41
2018-12-19T01:37:30.295Z,99494.31
2018-12-19T01:40:00.605Z,99496.48
2018-12-19T01:42:30.791Z,99489.19
2018-12-19T01:45:01.894Z,99491.23
2018-12-19T01:47:32.310Z,99493.81
2018-12-19T01:50:03.530Z,99493.33
2018-12-19T01:52:33.846Z,99488.05
2018-12-19T01:55:04.653Z,99490.12
2018-12-19T01:57:34.877Z,99493.27
2018-12-19T02:00:05.769Z,99485.13
2018-12-19T02:02:36.882Z,99476.84
2018-12-19T02:05:07.810Z,99477.91
2018-12-19T02:07:38.146Z,99476.61
2018-12-19T02:10:08.312Z,99476.49
2018-12-19T02:12:39.057Z,99474.32
2018-12-19T02:15:09.238Z,99466.56
2018-12-19T02:17:40.687Z,99476.78
2018-12-19T02:20:11.443Z,99475.09
2018-12-19T02:22:41.783Z,99472.69
2018-12-19T02:25:12.144Z,99471.14
2018-12-19T02:27:43.014Z,99466.70
2018-12-19T02:30:13.165Z,99462.14
2018-12-19T02:32:44.077Z,99456.59
2018-12-19T02:35:14.641Z,99448.67
2018-12-19T02:37:45.025Z,99448.45
2018-12-19T02:40:16.207Z,99450.25
2018-12-19T02:42:46.454Z,99444.00
2018-12-19T02:45:17.400Z,99439.33
2018-12-19T02:47:47.707Z,99437.89
2018-12-19T02:50:22.541Z,99440.79
2018-12-19T02:52:52.765Z,99441.16
2018-12-19T02:55:22.933Z,99444.86
2018-12-19T02:57:59.556Z,99440.89
2018-12-19T03:00:30.322Z,99437.44
2018-12-19T03:03:00.941Z,99434.30
2018-12-19T03:05:31.791Z,99436.71
2018-12-19T03:08:03.729Z,99432.52
2018-12-19T03:10:34.718Z,99428.20
2018-12-19T03:13:06.005Z,99424.59
2018-12-19T03:15:36.178Z,99417.88
2018-12-19T03:18:06.530Z,99416.54
2018-12-19T03:20:36.859Z,99415.97
2018-12-19T03:23:07.240Z,99414.65
2018-12-19T03:25:37.715Z,99410.17
2018-12-19T03:28:07.962Z,99411.63
2018-12-19T03:30:38.349Z,99410.80
2018-12-19T03:33:09.009Z,99412.83
2018-12-19T03:35:39.220Z,99410.70
2018-12-19T03:38:11.522Z,99424.64
2018-12-19T03:40:41.808Z,99431.00
2018-12-19T03:43:12.208Z,99439.04
2018-12-19T03:48:26.203Z,99431.11
2018-12-19T03:50:57.659Z,99431.34
2018-12-19T03:53:28.233Z,99432.33
2018-12-19T03:55:58.742Z,99446.38
2018-12-19T03:58:30.152Z,99443.26
2018-12-19T04:01:00.209Z,99440.38
2018-12-19T04:03:30.488Z,99439.42
2018-12-19T04:06:00.596Z,99442.78
2018-12-19T04:08:30.845Z,99445.19
2018-12-19T04:11:01.828Z,99448.67
2018-12-19T04:13:32.767Z,99450.37
2018-12-19T04:16:03.352Z,99458.27
2018-12-19T04:18:35.121Z,99456.38
2018-12-19T04:21:05.511Z,99452.27
2018-12-19T04:23:36.653Z,99450.61
2018-12-19T04:28:44.458Z,99434.14
2018-12-19T04:31:14.505Z,99432.58
2018-12-19T04:33:44.967Z,99431.36
2018-12-19T04:36:15.334Z,99432.58
2018-12-19T04:41:23.345Z,99423.56
2018-12-19T04:43:53.418Z,99420.78
2018-12-19T04:46:24.372Z,99420.44
2018-12-19T04:48:54.730Z,99417.29
2018-12-19T04:51:26.734Z,99421.52
2018-12-19T04:53:57.906Z,99421.86
2018-12-19T04:56:28.604Z,99422.84
2018-12-19T04:58:59.124Z,99418.74
2018-12-19T05:01:29.885Z,99414.30
2018-12-19T05:04:00.312Z,99414.16
2018-12-19T05:06:30.727Z,99417.78
2018-12-19T05:09:00.794Z,99418.48
2018-12-19T05:11:31.133Z,99407.05
2018-12-19T05:14:01.203Z,99411.61
2018-12-19T05:16:31.532Z,99407.98
2018-12-19T05:19:01.761Z,99417.70
2018-12-19T05:21:32.231Z,99409.63
2018-12-19T05:24:02.559Z,99409.00
2018-12-19T05:26:33.203Z,99417.14
2018-12-19T05:29:03.513Z,99418.58
2018-12-19T05:31:34.274Z,99422.39
2018-12-19T05:34:05.604Z,99419.13
2018-12-19T05:36:36.858Z,99413.44
2018-12-19T05:39:07.713Z,99419.19
2018-12-19T05:41:38.035Z,99426.15
2018-12-19T05:44:08.161Z,99429.75
2018-12-19T05:46:38.877Z,99427.81
2018-12-19T05:49:09.142Z,99428.25
2018-12-19T05:51:39.868Z,99422.45
2018-12-19T05:54:10.511Z,99419.54
2018-12-19T05:56:40.509Z,99417.62
2018-12-19T05:59:10.636Z,99412.77
2018-12-19T06:01:41.330Z,99415.20
2018-12-19T06:04:13.594Z,99420.61
2018-12-19T06:06:43.959Z,99424.33
2018-12-19T06:09:15.627Z,99417.66
2018-12-19T06:11:46.143Z,99409.87
2018-12-19T06:14:16.333Z,99401.88
2018-12-19T06:16:46.629Z,99404.20
2018-12-19T06:19:17.220Z,99402.03
2018-12-19T06:21:48.651Z,99413.47
2018-12-19T06:24:23.703Z,99411.66
2018-12-19T06:26:53.951Z,99411.78
2018-12-19T06:29:24.279Z,99403.97
2018-12-19T06:31:55.006Z,99404.31
2018-12-19T06:34:25.063Z,99414.17
2018-12-19T06:36:55.235Z,99410.05
2018-12-19T06:39:25.238Z,99411.12
2018-12-19T06:41:55.511Z,99411.11
2018-12-19T06:44:25.603Z,99403.71
2018-12-19T06:46:56.244Z,99402.12
2018-12-19T06:49:27.215Z,99406.73
2018-12-19T06:51:57.192Z,99404.92
2018-12-19T06:54:33.794Z,99395.69
2018-12-19T06:57:03.776Z,99392.00
2018-12-19T06:59:34.774Z,99398.16
2018-12-19T07:02:05.492Z,99395.50
2018-12-19T07:04:35.819Z,99391.48
2018-12-19T07:07:12.213Z,99382.83
2018-12-19T07:09:42.640Z,99381.83
2018-12-19T07:12:13.350Z,99381.16
2018-12-19T07:14:43.679Z,99380.62
2018-12-19T07:17:13.746Z,99384.91
2018-12-19T07:19:43.893Z,99378.91
2018-12-19T07:22:13.960Z,99376.00
2018-12-19T07:24:44.073Z,99374.94
2018-12-19T07:27:14.523Z,99386.60
2018-12-19T07:29:44.493Z,99379.78
2018-12-19T07:32:14.642Z,99384.81
2018-12-19T07:34:45.662Z,99383.64
2018-12-19T07:37:15.768Z,99384.91
2018-12-19T07:42:22.597Z,99378.07
2018-12-19T07:44:52.781Z,99369.48
2018-12-19T07:47:22.791Z,99367.09
2018-12-19T07:49:52.739Z,99365.03
2018-12-19T07:52:22.848Z,99362.17
2018-12-19T07:54:52.934Z,99378.88
2018-12-19T07:57:23.210Z,99366.67
2018-12-19T07:59:53.345Z,99378.34
2018-12-19T08:02:23.339Z,99383.23
2018-12-19T08:04:53.598Z,99382.48
2018-12-19T08:07:24.065Z,99383.63
2018-12-19T08:09:54.309Z,99382.30
2018-12-19T08:12:24.262Z,99391.17
2018-12-19T08:14:58.376Z,99386.34
2018-12-19T08:17:29.092Z,99392.11
2018-12-19T08:19:59.609Z,99390.51
2018-12-19T08:22:30.194Z,99404.95
2018-12-19T08:25:00.624Z,99398.69
2018-12-19T08:27:30.940Z,99394.70
2018-12-19T08:30:00.972Z,99397.92
2018-12-19T08:32:31.100Z,99398.07
2018-12-19T08:35:01.050Z,99396.56
2018-12-19T08:37:31.160Z,99391.25
2018-12-19T08:40:01.921Z,99385.52
2018-12-19T08:42:32.087Z,99385.08
2018-12-19T08:47:44.977Z,99371.61
2018-12-19T08:50:15.910Z,99371.41
2018-12-19T08:52:46.025Z,99358.82
2018-12-19T08:55:16.686Z,99360.97
2018-12-19T08:57:46.977Z,99366.05
2018-12-19T09:00:17.704Z,99366.44
2018-12-19T09:02:48.191Z,99368.61
2018-12-19T09:05:22.093Z,99370.77
2018-12-19T09:07:53.161Z,99371.19
2018-12-19T09:10:23.248Z,99366.52
2018-12-19T09:12:53.265Z,99375.81
2018-12-19T09:18:06.164Z,99381.94
2018-12-19T09:20:36.484Z,99387.25
2018-12-19T09:23:06.645Z,99382.79
2018-12-19T09:25:37.605Z,99374.49
2018-12-19T09:28:09.564Z,99375.05
2018-12-19T09:30:40.476Z,99374.41
2018-12-19T09:33:13.954Z,99370.98
2018-12-19T09:35:44.107Z,99356.53
2018-12-19T09:38:14.588Z,99356.23
2018-12-19T09:40:45.856Z,99341.06
2018-12-19T09:43:16.138Z,99332.69
2018-12-19T09:45:46.844Z,99339.47
2018-12-19T09:50:54.448Z,99316.00
2018-12-19T09:56:10.175Z,99306.06
2018-12-19T09:58:41.017Z,99292.09
2018-12-19T10:01:11.697Z,99290.91
2018-12-19T10:03:41.746Z,99281.41
2018-12-19T10:06:12.180Z,99287.42
2018-12-19T10:11:19.190Z,99286.94
2018-12-19T10:13:50.145Z,99288.95
2018-12-19T10:16:20.258Z,99299.78
2018-12-19T10:18:50.495Z,99301.11
2018-12-19T10:27:49.639Z,99284.41
2018-12-19T10:30:20.359Z,99276.46
2018-12-19T10:32:56.959Z,99281.39
2018-12-19T10:38:03.711Z,99268.87
2018-12-19T10:43:10.640Z,99267.95
2018-12-19T10:45:40.634Z,99265.41
2018-12-19T10:48:11.147Z,99258.16
2018-12-19T10:50:41.493Z,99252.77
2018-12-19T10:53:11.743Z,99248.20
2018-12-19T10:55:42.888Z,99250.58
2018-12-19T10:58:13.686Z,99244.74
2018-12-19T11:03:30.231Z,99235.42
2018-12-19T11:06:00.407Z,99240.25
2018-12-19T11:08:31.201Z,99242.22
2018-12-19T11:11:01.287Z,99241.19
2018-12-19T11:13:31.403Z,99240.34
2018-12-19T11:16:02.461Z,99233.39
2018-12-19T11:18:32.656Z,99228.89
2018-12-19T11:23:39.718Z,99231.40
2018-12-19T11:26:13.894Z,99230.92
2018-12-19T11:28:44.350Z,99229.20
2018-12-19T11:31:14.501Z,99228.77
2018-12-19T11:33:45.077Z,99230.73
2018-12-19T11:36:15.401Z,99223.57
2018-12-19T11:38:47.173Z,99220.39
2018-12-19T11:41:17.308Z,99216.25
2018-12-19T11:46:24.510Z,99207.64
2018-12-19T11:48:54.535Z,99205.61
2018-12-19T11:51:24.487Z,99217.76
2018-12-19T11:53:54.886Z,99214.66
2018-12-19T11:56:24.907Z,99212.06
2018-12-19T11:58:55.288Z,99217.25
2018-12-19T12:01:25.430Z,99218.63
2018-12-19T12:03:55.708Z,99203.81
2018-12-19T12:06:27.942Z,99209.98
2018-12-19T12:08:57.998Z,99198.95
2018-12-19T12:11:28.376Z,99201.42
2018-12-19T12:13:58.812Z,99201.53
2018-12-19T12:16:29.233Z,99202.48
2018-12-19T12:18:59.533Z,99203.15
2018-12-19T12:21:31.082Z,99200.52
2018-12-19T12:24:01.672Z,99203.66
2018-12-19T12:26:32.988Z,99200.85
2018-12-19T12:29:04.362Z,99211.62
2018-12-19T12:31:34.528Z,99197.83
2018-12-19T12:34:06.696Z,99190.70
2018-12-19T12:36:36.931Z,99194.77
2018-12-19T12:39:08.815Z,99191.84
2018-12-19T12:41:43.668Z,99193.69
2018-12-19T12:44:13.693Z,99190.41
2018-12-19T12:46:43.937Z,99180.22
2018-12-19T12:49:14.981Z,99175.40
2018-12-19T12:51:45.078Z,99169.36
2018-12-19T12:54:15.885Z,99175.52
2018-12-19T12:56:46.146Z,99175.80
2018-12-19T12:59:16.267Z,99175.72
2018-12-19T13:01:46.353Z,99169.39
2018-12-19T13:04:16.584Z,99170.11
2018-12-19T13:06:46.893Z,99162.27
2018-12-19T13:09:17.098Z,99167.45
2018-12-19T13:11:47.223Z,99163.58
2018-12-19T13:14:17.626Z,99155.52
2018-12-19T13:19:24.116Z,99146.36
2018-12-19T13:21:54.201Z,99142.27
2018-12-19T13:24:24.717Z,99150.20
2018-12-19T13:26:56.616Z,99141.10
2018-12-19T13:32:03.926Z,99142.84
2018-12-19T13:34:33.912Z,99140.55
2018-12-19T13:37:04.653Z,99148.64
2018-12-19T13:39:34.730Z,99146.50
2018-12-19T13:44:42.405Z,99139.28
2018-12-19T13:47:15.452Z,99135.34
2018-12-19T13:49:46.780Z,99138.65
2018-12-19T13:52:17.300Z,99129.03
2018-12-19T13:57:23.751Z,99142.43
2018-12-19T13:59:53.731Z,99134.63
2018-12-19T14:02:23.887Z,99132.26
2018-12-19T14:04:54.108Z,99129.05
2018-12-19T14:10:01.691Z,99117.95
2018-12-19T14:12:31.992Z,99112.60
2018-12-19T14:15:02.067Z,99111.23
2018-12-19T14:17:32.881Z,99106.61
2018-12-19T14:20:02.997Z,99106.00
2018-12-19T14:22:33.334Z,99116.53
2018-12-19T14:25:03.820Z,99114.71
2018-12-19T14:27:34.038Z,99113.27
2018-12-19T14:30:06.455Z,99110.05
2018-12-19T14:32:39.626Z,99114.70
2018-12-19T14:35:10.339Z,99109.70
2018-12-19T14:37:40.749Z,99104.51
2018-12-19T14:40:11.523Z,99113.02
2018-12-19T14:42:41.839Z,99114.34
2018-12-19T14:45:12.678Z,99114.46
2018-12-19T14:50:25.632Z,99119.55
2018-12-19T14:52:55.680Z,99114.01
2018-12-19T14:55:27.447Z,99114.85
2018-12-19T14:57:57.718Z,99119.37
2018-12-19T15:00:27.945Z,99111.48
2018-12-19T15:02:58.725Z,99111.20
2018-12-19T15:05:29.173Z,99106.56
2018-12-19T15:07:59.416Z,99100.58
2018-12-19T15:10:29.636Z,99098.83
2018-12-19T15:12:59.748Z,99099.67
2018-12-19T15:15:30.379Z,99105.61
2018-12-19T15:18:01.841Z,99099.41
2018-12-19T15:20:33.237Z,99106.98
2018-12-19T15:23:03.431Z,99111.80
2018-12-19T15:25:33.997Z,99107.78
2018-12-19T15:28:04.311Z,99106.48
2018-12-19T15:30:35.298Z,99110.30
2018-12-19T15:33:05.928Z,99107.97
2018-12-19T15:35:37.363Z,99097.82
2018-12-19T15:38:07.370Z,99095.06
2018-12-19T15:40:39.567Z,99090.25
2018-12-19T15:45:52.522Z,99092.62
2018-12-19T15:48:22.808Z,99085.57
2018-12-19T15:50:52.999Z,99084.14
2018-12-19T15:53:24.339Z,99084.73
2018-12-19T15:55:54.983Z,99078.02
2018-12-19T15:58:26.009Z,99072.66
2018-12-19T16:00:56.199Z,99063.66
2018-12-19T16:03:26.201Z,99066.34
2018-12-19T16:08:32.870Z,99068.14
2018-12-19T16:11:03.375Z,99063.95
2018-12-19T16:13:33.790Z,99059.03
2018-12-19T16:16:04.947Z,99058.67
2018-12-19T16:18:35.178Z,99060.25
2018-12-19T16:21:06.645Z,99047.08
2018-12-19T16:23:38.228Z,99044.43
2018-12-19T16:26:09.790Z,99039.41
2018-12-19T16:28:39.853Z,99040.58
2018-12-19T16:31:10.161Z,99042.52
2018-12-19T16:33:40.615Z,99043.99
2018-12-19T16:36:12.718Z,99039.66
2018-12-19T16:38:44.027Z,99044.47
2018-12-19T16:41:14.206Z,99045.80
2018-12-19T16:43:44.281Z,99043.15
2018-12-19T16:46:14.711Z,99035.52
2018-12-19T16:48:45.305Z,99027.33
2018-12-19T16:51:15.695Z,99025.38
2018-12-19T16:53:46.099Z,99030.81
2018-12-19T16:56:16.317Z,99023.84
2018-12-19T16:58:46.646Z,99023.22
2018-12-19T17:01:17.302Z,99026.59
2018-12-19T17:03:47.370Z,99021.67
2018-12-19T17:08:55.475Z,99020.28
2018-12-19T17:11:25.572Z,99019.77
2018-12-19T17:13:56.301Z,99023.14
2018-12-19T17:16:27.151Z,99009.46
2018-12-19T17:18:58.134Z,99006.70
2018-12-19T17:21:29.781Z,99006.56
2018-12-19T17:24:00.555Z,99014.27
2018-12-19T17:26:31.197Z,99010.78
2018-12-19T17:29:01.326Z,99007.33
2018-12-19T17:31:31.378Z,99006.27
2018-12-19T17:36:38.045Z,98996.91
2018-12-19T17:39:08.643Z,98996.91
2018-12-19T17:41:41.249Z,98996.47
2018-12-19T17:44:14.365Z,99000.06
2018-12-19T17:46:45.166Z,99001.87
2018-12-19T17:49:15.364Z,98993.83
2018-12-19T17:51:46.545Z,98994.34
2018-12-19T17:54:16.869Z,98992.40
2018-12-19T17:56:47.579Z,98990.02
2018-12-19T17:59:18.067Z,98977.53
2018-12-19T18:01:48.807Z,98975.27
2018-12-19T18:04:19.303Z,98970.83
2018-12-19T18:06:49.924Z,98965.95
2018-12-19T18:09:20.241Z,98971.82
2018-12-19T18:11:54.464Z,98969.66
2018-12-19T18:14:24.733Z,98978.61
2018-12-19T18:16:55.533Z,98972.48
2018-12-19T18:19:26.073Z,98977.06
2018-12-19T18:22:00.643Z,98979.34
2018-12-19T18:24:31.379Z,98976.25
2018-12-19T18:27:01.867Z,98967.34
2018-12-19T18:29:32.284Z,98974.56
2018-12-19T18:32:03.486Z,98973.39
2018-12-19T18:34:33.773Z,98961.88
2018-12-19T18:37:04.586Z,98968.84
2018-12-19T18:39:34.830Z,98964.27
2018-12-19T18:42:06.656Z,98958.76
2018-12-19T18:44:37.424Z,98949.63
2018-12-19T18:47:09.066Z,98953.73
2018-12-19T18:49:39.730Z,98952.19
2018-12-19T18:52:09.711Z,98952.55
2018-12-19T18:54:40.308Z,98943.80
2018-12-19T18:57:10.471Z,98945.33
2018-12-19T18:59:40.783Z,98939.24
2018-12-19T19:04:48.350Z,98941.48
2018-12-19T19:07:22.371Z,98938.98
2018-12-19T19:09:53.500Z,98930.81
2018-12-19T20:00:41.334Z,98948.58
2018-12-19T20:03:13.075Z,98944.00
2018-12-19T20:05:45.269Z,98942.81
2018-12-19T20:08:16.760Z,98939.31
2018-12-19T20:10:47.623Z,98925.48
2018-12-19T20:13:18.730Z,98926.30
2018-12-19T20:15:49.873Z,98927.60
2018-12-19T20:18:24.024Z,98933.92
2018-12-19T20:20:54.814Z,98915.93
2018-12-19T20:23:26.273Z,98918.17
2018-12-19T20:25:57.284Z,98915.17
2018-12-19T20:28:29.063Z,98915.39
2018-12-19T20:30:59.744Z,98918.95
2018-12-19T20:33:34.255Z,98920.64
2018-12-19T20:36:06.003Z,98917.38
2018-12-19T20:38:36.622Z,98921.92
2018-12-19T20:41:07.193Z,98922.81
2018-12-19T20:43:40.080Z,98910.09
2018-12-19T20:46:10.905Z,98912.40
2018-12-19T20:48:42.203Z,98915.73
2018-12-19T20:51:13.707Z,98909.28
2018-12-19T20:53:48.282Z,98905.66
2018-12-19T20:56:19.096Z,98908.41
2018-12-19T20:58:50.130Z,98908.52
2018-12-19T21:01:20.734Z,98907.78
2018-12-19T21:03:51.626Z,98907.09
2018-12-19T21:06:22.133Z,98906.34
2018-12-19T21:08:52.968Z,98907.05
2018-12-19T21:11:23.468Z,98910.64
2018-12-19T21:13:54.432Z,98909.36
2018-12-19T21:16:30.015Z,98911.52
2018-12-19T21:19:00.366Z,98905.03
2018-12-19T21:21:32.233Z,98910.31
2018-12-19T21:24:02.944Z,98911.89
2018-12-19T21:26:33.525Z,98908.03
2018-12-19T21:29:04.835Z,98904.77
2018-12-19T21:31:36.936Z,98910.67
2018-12-19T21:34:07.426Z,98900.01
2018-12-19T21:36:38.200Z,98904.56
2018-12-19T21:39:10.445Z,98899.31
2018-12-19T21:41:41.060Z,98905.14
2018-12-19T21:44:18.213Z,98910.20
2018-12-19T21:46:48.613Z,98907.45
2018-12-19T21:49:19.235Z,98906.98
2018-12-19T21:51:50.072Z,98904.77
2018-12-19T21:54:20.633Z,98893.52
2018-12-19T21:56:51.309Z,98894.58
2018-12-19T21:59:21.708Z,98887.87
2018-12-19T22:01:52.178Z,98884.75
2018-12-19T22:04:22.629Z,98888.83
2018-12-19T22:06:53.401Z,98897.37
2018-12-19T22:09:25.070Z,98879.25
2018-12-19T22:11:56.081Z,98886.08
2018-12-19T22:14:26.386Z,98893.77
2018-12-19T22:17:02.292Z,98887.87
2018-12-19T22:19:33.130Z,98892.82
2018-12-19T22:22:03.883Z,98883.91
2018-12-19T22:24:34.490Z,98888.09
2018-12-19T22:27:05.660Z,98889.12
2018-12-19T22:29:36.745Z,98875.92
2018-12-19T22:32:08.380Z,98892.60
2018-12-19T22:34:39.120Z,98886.11
2018-12-19T22:37:09.373Z,98877.53
2018-12-19T22:39:39.923Z,98882.05
2018-12-19T22:42:11.428Z,98881.05
2018-12-19T22:44:42.150Z,98874.96
2018-12-19T22:47:12.364Z,98869.69
2018-12-19T22:49:42.877Z,98878.19
2018-12-19T22:52:13.371Z,98870.56
2018-12-19T22:54:43.899Z,98870.27
2018-12-19T22:57:14.151Z,98874.45
2018-12-19T22:59:44.911Z,98863.89
2018-12-19T23:02:20.782Z,98864.87
2018-12-19T23:04:51.169Z,98870.02
2018-12-19T23:07:21.787Z,98868.84
2018-12-19T23:09:52.022Z,98870.27
2018-12-19T23:12:22.497Z,98865.72
2018-12-19T23:14:52.843Z,98866.02
2018-12-19T23:17:33.978Z,98865.95
2018-12-19T23:20:11.929Z,98855.97
2018-12-19T23:22:48.002Z,98857.66
2018-12-19T23:25:25.280Z,98857.66
2018-12-19T23:27:58.015Z,98850.58
2018-12-19T23:33:05.003Z,98850.44
2018-12-19T23:35:35.054Z,98856.41
2018-12-19T23:38:05.834Z,98855.13
2018-12-19T23:40:36.905Z,98855.94
2018-12-19T23:43:08.020Z,98866.20
2018-12-19T23:45:38.499Z,98861.03
2018-12-19T23:48:09.555Z,98852.93
2018-12-19T23:50:40.113Z,98851.68
2018-12-19T23:53:10.197Z,98849.34
2018-12-19T23:55:40.964Z,98845.97
2018-12-19T23:58:12.102Z,98846.70
